sensor_id;sensor_type;location;lat;lon;timestamp;P1;durP1;ratioP1;P2;durP2;ratioP2
13708;SDS011;54933;51.908;7.730;2023-04-16T00:00:11;1.53;;;1.40;;
13708;SDS011;54933;51.908;7.730;2023-04-16T00:02:36;1.50;;;1.40;;
13708;SDS011;54933;51.908;7.730;2023-04-16T00:05:02;1.70;;;1.60;;
13708;SDS011;54933;51.908;7.730;2023-04-16T00:07:27;2.47;;;1.40;;
13708;SDS011;54933;51.908;7.730;2023-04-16T00:09:53;1.70;;;1.60;;
13708;SDS011;54933;51.908;7.730;2023-04-16T00:12:18;1.47;;;1.37;;
13708;SDS011;54933;51.908;7.730;2023-04-16T00:14:43;2.83;;;1.33;;
13708;SDS011;54933;51.908;7.730;2023-04-16T00:17:09;1.50;;;1.40;;
13708;SDS011;54933;51.908;7.730;2023-04-16T00:19:34;1.93;;;1.73;;
13708;SDS011;54933;51.908;7.730;2023-04-16T00:22:00;1.40;;;1.30;;
13708;SDS011;54933;51.908;7.730;2023-04-16T00:24:25;1.47;;;1.37;;
13708;SDS011;54933;51.908;7.730;2023-04-16T00:26:50;1.40;;;1.30;;
13708;SDS011;54933;51.908;7.730;2023-04-16T00:29:15;1.00;;;1.00;;
13708;SDS011;54933;51.908;7.730;2023-04-16T00:31:41;1.43;;;1.30;;
13708;SDS011;54933;51.908;7.730;2023-04-16T00:34:06;1.63;;;1.47;;
13708;SDS011;54933;51.908;7.730;2023-04-16T00:36:31;1.43;;;1.33;;
13708;SDS011;54933;51.908;7.730;2023-04-16T00:38:56;1.73;;;1.63;;
13708;SDS011;54933;51.908;7.730;2023-04-16T00:41:22;1.37;;;1.37;;
13708;SDS011;54933;51.908;7.730;2023-04-16T00:43:47;1.40;;;1.30;;
13708;SDS011;54933;51.908;7.730;2023-04-16T00:46:13;1.77;;;1.67;;
13708;SDS011;54933;51.908;7.730;2023-04-16T00:48:40;1.50;;;1.40;;
13708;SDS011;54933;51.908;7.730;2023-04-16T00:51:07;1.60;;;1.50;;
13708;SDS011;54933;51.908;7.730;2023-04-16T00:53:33;1.30;;;1.20;;
13708;SDS011;54933;51.908;7.730;2023-04-16T00:56:00;2.90;;;1.77;;
13708;SDS011;54933;51.908;7.730;2023-04-16T00:58:27;1.60;;;1.50;;
13708;SDS011;54933;51.908;7.730;2023-04-16T01:00:53;1.60;;;1.50;;
13708;SDS011;54933;51.908;7.730;2023-04-16T01:03:18;1.60;;;1.50;;
13708;SDS011;54933;51.908;7.730;2023-04-16T01:05:43;1.90;;;1.40;;
13708;SDS011;54933;51.908;7.730;2023-04-16T01:08:19;1.60;;;1.50;;
13708;SDS011;54933;51.908;7.730;2023-04-16T01:10:45;1.43;;;1.33;;
13708;SDS011;54933;51.908;7.730;2023-04-16T01:13:11;3.63;;;1.70;;
13708;SDS011;54933;51.908;7.730;2023-04-16T01:15:37;1.63;;;1.40;;
13708;SDS011;54933;51.908;7.730;2023-04-16T01:18:02;1.70;;;1.60;;
13708;SDS011;54933;51.908;7.730;2023-04-16T01:20:36;1.70;;;1.60;;
13708;SDS011;54933;51.908;7.730;2023-04-16T01:23:02;1.70;;;1.40;;
13708;SDS011;54933;51.908;7.730;2023-04-16T01:25:27;1.93;;;1.50;;
13708;SDS011;54933;51.908;7.730;2023-04-16T01:27:52;1.67;;;1.57;;
13708;SDS011;54933;51.908;7.730;2023-04-16T01:30:18;2.00;;;1.47;;
13708;SDS011;54933;51.908;7.730;2023-04-16T01:32:44;1.60;;;1.50;;
13708;SDS011;54933;51.908;7.730;2023-04-16T01:35:09;1.70;;;1.60;;
13708;SDS011;54933;51.908;7.730;2023-04-16T01:37:34;1.47;;;1.37;;
13708;SDS011;54933;51.908;7.730;2023-04-16T01:40:00;1.63;;;1.50;;
13708;SDS011;54933;51.908;7.730;2023-04-16T01:42:25;1.60;;;1.50;;
13708;SDS011;54933;51.908;7.730;2023-04-16T01:44:50;1.40;;;1.30;;
13708;SDS011;54933;51.908;7.730;2023-04-16T01:47:16;1.50;;;1.40;;
13708;SDS011;54933;51.908;7.730;2023-04-16T01:49:41;1.57;;;1.47;;
13708;SDS011;54933;51.908;7.730;2023-04-16T01:52:09;1.70;;;1.60;;
13708;SDS011;54933;51.908;7.730;2023-04-16T01:54:34;1.50;;;1.40;;
13708;SDS011;54933;51.908;7.730;2023-04-16T01:57:00;2.23;;;1.50;;
13708;SDS011;54933;51.908;7.730;2023-04-16T01:59:25;2.33;;;1.57;;
13708;SDS011;54933;51.908;7.730;2023-04-16T02:01:50;2.00;;;1.70;;
13708;SDS011;54933;51.908;7.730;2023-04-16T02:04:16;3.67;;;1.60;;
13708;SDS011;54933;51.908;7.730;2023-04-16T02:06:41;1.67;;;1.57;;
13708;SDS011;54933;51.908;7.730;2023-04-16T02:09:06;1.80;;;1.70;;
13708;SDS011;54933;51.908;7.730;2023-04-16T02:11:32;2.17;;;1.83;;
13708;SDS011;54933;51.908;7.730;2023-04-16T02:13:57;2.00;;;1.53;;
13708;SDS011;54933;51.908;7.730;2023-04-16T02:16:22;1.60;;;1.50;;
13708;SDS011;54933;51.908;7.730;2023-04-16T02:18:48;2.03;;;1.83;;
13708;SDS011;54933;51.908;7.730;2023-04-16T02:21:13;1.80;;;1.70;;
13708;SDS011;54933;51.908;7.730;2023-04-16T02:23:38;2.17;;;1.60;;
13708;SDS011;54933;51.908;7.730;2023-04-16T02:26:05;1.67;;;1.57;;
13708;SDS011;54933;51.908;7.730;2023-04-16T02:28:30;1.80;;;1.70;;
13708;SDS011;54933;51.908;7.730;2023-04-16T02:30:55;2.83;;;1.80;;
13708;SDS011;54933;51.908;7.730;2023-04-16T02:33:21;1.70;;;1.60;;
13708;SDS011;54933;51.908;7.730;2023-04-16T02:35:46;1.73;;;1.63;;
13708;SDS011;54933;51.908;7.730;2023-04-16T02:38:12;1.77;;;1.67;;
13708;SDS011;54933;51.908;7.730;2023-04-16T02:40:38;1.73;;;1.63;;
13708;SDS011;54933;51.908;7.730;2023-04-16T02:43:03;1.73;;;1.63;;
13708;SDS011;54933;51.908;7.730;2023-04-16T02:45:28;1.73;;;1.63;;
13708;SDS011;54933;51.908;7.730;2023-04-16T02:47:55;1.70;;;1.60;;
13708;SDS011;54933;51.908;7.730;2023-04-16T02:50:20;1.50;;;1.40;;
13708;SDS011;54933;51.908;7.730;2023-04-16T02:52:45;1.73;;;1.63;;
13708;SDS011;54933;51.908;7.730;2023-04-16T02:55:11;3.27;;;1.73;;
13708;SDS011;54933;51.908;7.730;2023-04-16T02:57:36;1.90;;;1.80;;
13708;SDS011;54933;51.908;7.730;2023-04-16T03:00:01;1.83;;;1.67;;
13708;SDS011;54933;51.908;7.730;2023-04-16T03:02:29;1.43;;;1.33;;
13708;SDS011;54933;51.908;7.730;2023-04-16T03:04:54;1.97;;;1.77;;
13708;SDS011;54933;51.908;7.730;2023-04-16T03:07:19;2.17;;;1.97;;
13708;SDS011;54933;51.908;7.730;2023-04-16T03:09:45;1.67;;;1.57;;
13708;SDS011;54933;51.908;7.730;2023-04-16T03:12:10;1.80;;;1.50;;
13708;SDS011;54933;51.908;7.730;2023-04-16T03:14:36;2.03;;;1.83;;
13708;SDS011;54933;51.908;7.730;2023-04-16T03:17:01;1.90;;;1.80;;
13708;SDS011;54933;51.908;7.730;2023-04-16T03:19:26;1.73;;;1.63;;
13708;SDS011;54933;51.908;7.730;2023-04-16T03:21:51;2.03;;;1.80;;
13708;SDS011;54933;51.908;7.730;2023-04-16T03:24:17;2.03;;;1.80;;
13708;SDS011;54933;51.908;7.730;2023-04-16T03:26:42;1.77;;;1.50;;
13708;SDS011;54933;51.908;7.730;2023-04-16T03:29:07;2.00;;;1.70;;
13708;SDS011;54933;51.908;7.730;2023-04-16T03:31:33;2.07;;;1.87;;
13708;SDS011;54933;51.908;7.730;2023-04-16T03:33:58;1.57;;;1.47;;
13708;SDS011;54933;51.908;7.730;2023-04-16T03:36:23;2.93;;;2.17;;
13708;SDS011;54933;51.908;7.730;2023-04-16T03:38:50;1.60;;;1.50;;
13708;SDS011;54933;51.908;7.730;2023-04-16T03:41:15;1.87;;;1.77;;
13708;SDS011;54933;51.908;7.730;2023-04-16T03:43:40;1.67;;;1.57;;
13708;SDS011;54933;51.908;7.730;2023-04-16T03:46:06;2.00;;;1.73;;
13708;SDS011;54933;51.908;7.730;2023-04-16T03:48:31;1.87;;;1.77;;
13708;SDS011;54933;51.908;7.730;2023-04-16T03:50:56;2.53;;;2.10;;
13708;SDS011;54933;51.908;7.730;2023-04-16T03:53:22;2.00;;;1.83;;
13708;SDS011;54933;51.908;7.730;2023-04-16T03:55:50;2.30;;;2.10;;
13708;SDS011;54933;51.908;7.730;2023-04-16T03:58:16;2.77;;;2.20;;
13708;SDS011;54933;51.908;7.730;2023-04-16T04:00:42;1.80;;;1.70;;
13708;SDS011;54933;51.908;7.730;2023-04-16T04:03:08;2.50;;;2.00;;
13708;SDS011;54933;51.908;7.730;2023-04-16T04:05:35;2.03;;;1.87;;
13708;SDS011;54933;51.908;7.730;2023-04-16T04:08:04;2.10;;;1.90;;
13708;SDS011;54933;51.908;7.730;2023-04-16T04:10:33;1.90;;;1.80;;
13708;SDS011;54933;51.908;7.730;2023-04-16T04:13:00;2.43;;;1.80;;
13708;SDS011;54933;51.908;7.730;2023-04-16T04:15:26;2.10;;;1.83;;
13708;SDS011;54933;51.908;7.730;2023-04-16T04:17:51;2.20;;;1.80;;
13708;SDS011;54933;51.908;7.730;2023-04-16T04:20:17;2.13;;;1.93;;
13708;SDS011;54933;51.908;7.730;2023-04-16T04:22:42;2.00;;;1.90;;
13708;SDS011;54933;51.908;7.730;2023-04-16T04:25:08;2.60;;;2.40;;
13708;SDS011;54933;51.908;7.730;2023-04-16T04:27:34;2.33;;;2.10;;
13708;SDS011;54933;51.908;7.730;2023-04-16T04:29:59;1.83;;;1.73;;
13708;SDS011;54933;51.908;7.730;2023-04-16T04:32:25;1.80;;;1.70;;
13708;SDS011;54933;51.908;7.730;2023-04-16T04:34:50;1.93;;;1.83;;
13708;SDS011;54933;51.908;7.730;2023-04-16T04:37:15;1.80;;;1.70;;
13708;SDS011;54933;51.908;7.730;2023-04-16T04:39:41;3.60;;;1.80;;
13708;SDS011;54933;51.908;7.730;2023-04-16T04:42:06;2.20;;;2.00;;
13708;SDS011;54933;51.908;7.730;2023-04-16T04:44:32;3.10;;;1.87;;
13708;SDS011;54933;51.908;7.730;2023-04-16T04:46:57;2.10;;;1.83;;
13708;SDS011;54933;51.908;7.730;2023-04-16T04:49:22;3.83;;;1.90;;
13708;SDS011;54933;51.908;7.730;2023-04-16T04:51:47;1.90;;;1.80;;
13708;SDS011;54933;51.908;7.730;2023-04-16T04:54:13;2.10;;;1.93;;
13708;SDS011;54933;51.908;7.730;2023-04-16T04:56:38;2.00;;;1.80;;
13708;SDS011;54933;51.908;7.730;2023-04-16T04:59:04;1.83;;;1.73;;
13708;SDS011;54933;51.908;7.730;2023-04-16T05:01:29;1.90;;;1.80;;
13708;SDS011;54933;51.908;7.730;2023-04-16T05:03:54;2.40;;;2.20;;
13708;SDS011;54933;51.908;7.730;2023-04-16T05:06:20;1.83;;;1.73;;
13708;SDS011;54933;51.908;7.730;2023-04-16T05:08:45;2.10;;;1.90;;
13708;SDS011;54933;51.908;7.730;2023-04-16T05:11:10;2.13;;;1.93;;
13708;SDS011;54933;51.908;7.730;2023-04-16T05:13:35;1.87;;;1.77;;
13708;SDS011;54933;51.908;7.730;2023-04-16T05:16:01;2.63;;;2.43;;
13708;SDS011;54933;51.908;7.730;2023-04-16T05:18:26;1.80;;;1.70;;
13708;SDS011;54933;51.908;7.730;2023-04-16T05:20:51;1.73;;;1.63;;
13708;SDS011;54933;51.908;7.730;2023-04-16T05:23:17;2.27;;;2.00;;
13708;SDS011;54933;51.908;7.730;2023-04-16T05:25:42;23.57;;;4.90;;
13708;SDS011;54933;51.908;7.730;2023-04-16T05:28:08;8.73;;;2.90;;
13708;SDS011;54933;51.908;7.730;2023-04-16T05:30:33;6.30;;;2.47;;
13708;SDS011;54933;51.908;7.730;2023-04-16T05:32:59;5.80;;;2.27;;
13708;SDS011;54933;51.908;7.730;2023-04-16T05:35:24;9.17;;;3.43;;
13708;SDS011;54933;51.908;7.730;2023-04-16T05:37:49;9.90;;;2.63;;
13708;SDS011;54933;51.908;7.730;2023-04-16T05:40:14;2.90;;;2.33;;
13708;SDS011;54933;51.908;7.730;2023-04-16T05:42:40;6.97;;;2.20;;
13708;SDS011;54933;51.908;7.730;2023-04-16T05:45:05;5.23;;;3.50;;
13708;SDS011;54933;51.908;7.730;2023-04-16T05:47:31;4.63;;;2.13;;
13708;SDS011;54933;51.908;7.730;2023-04-16T05:49:56;3.87;;;2.73;;
13708;SDS011;54933;51.908;7.730;2023-04-16T05:52:21;4.40;;;1.93;;
13708;SDS011;54933;51.908;7.730;2023-04-16T05:54:46;3.10;;;2.23;;
13708;SDS011;54933;51.908;7.730;2023-04-16T05:57:12;3.13;;;2.40;;
13708;SDS011;54933;51.908;7.730;2023-04-16T05:59:38;3.23;;;2.27;;
13708;SDS011;54933;51.908;7.730;2023-04-16T06:02:03;2.57;;;2.37;;
13708;SDS011;54933;51.908;7.730;2023-04-16T06:04:28;6.57;;;2.10;;
13708;SDS011;54933;51.908;7.730;2023-04-16T06:06:54;2.60;;;2.40;;
13708;SDS011;54933;51.908;7.730;2023-04-16T06:09:20;4.80;;;2.47;;
13708;SDS011;54933;51.908;7.730;2023-04-16T06:11:45;2.63;;;2.27;;
13708;SDS011;54933;51.908;7.730;2023-04-16T06:14:10;8.50;;;2.27;;
13708;SDS011;54933;51.908;7.730;2023-04-16T06:16:36;2.73;;;2.50;;
13708;SDS011;54933;51.908;7.730;2023-04-16T06:19:01;2.57;;;2.23;;
13708;SDS011;54933;51.908;7.730;2023-04-16T06:21:27;7.10;;;2.50;;
13708;SDS011;54933;51.908;7.730;2023-04-16T06:23:53;2.50;;;2.10;;
13708;SDS011;54933;51.908;7.730;2023-04-16T06:26:19;2.90;;;2.27;;
13708;SDS011;54933;51.908;7.730;2023-04-16T06:28:44;4.87;;;2.30;;
13708;SDS011;54933;51.908;7.730;2023-04-16T06:31:09;2.10;;;1.97;;
13708;SDS011;54933;51.908;7.730;2023-04-16T06:33:35;2.53;;;2.20;;
13708;SDS011;54933;51.908;7.730;2023-04-16T06:36:01;2.80;;;2.10;;
13708;SDS011;54933;51.908;7.730;2023-04-16T06:38:26;4.37;;;2.30;;
13708;SDS011;54933;51.908;7.730;2023-04-16T06:40:51;3.73;;;2.10;;
13708;SDS011;54933;51.908;7.730;2023-04-16T06:43:17;2.30;;;2.10;;
13708;SDS011;54933;51.908;7.730;2023-04-16T06:45:42;2.67;;;2.47;;
13708;SDS011;54933;51.908;7.730;2023-04-16T06:48:07;2.27;;;2.13;;
13708;SDS011;54933;51.908;7.730;2023-04-16T06:50:32;4.57;;;2.10;;
13708;SDS011;54933;51.908;7.730;2023-04-16T06:52:58;4.67;;;2.13;;
13708;SDS011;54933;51.908;7.730;2023-04-16T06:55:23;2.90;;;2.70;;
13708;SDS011;54933;51.908;7.730;2023-04-16T06:57:48;2.40;;;2.20;;
13708;SDS011;54933;51.908;7.730;2023-04-16T07:00:13;2.90;;;2.20;;
13708;SDS011;54933;51.908;7.730;2023-04-16T07:02:39;3.70;;;2.93;;
13708;SDS011;54933;51.908;7.730;2023-04-16T07:05:04;3.23;;;2.10;;
13708;SDS011;54933;51.908;7.730;2023-04-16T07:07:30;2.73;;;2.53;;
13708;SDS011;54933;51.908;7.730;2023-04-16T07:09:55;3.23;;;2.93;;
13708;SDS011;54933;51.908;7.730;2023-04-16T07:12:20;3.17;;;2.33;;
13708;SDS011;54933;51.908;7.730;2023-04-16T07:14:46;2.80;;;2.60;;
13708;SDS011;54933;51.908;7.730;2023-04-16T07:17:11;3.87;;;2.53;;
13708;SDS011;54933;51.908;7.730;2023-04-16T07:19:36;2.80;;;2.30;;
13708;SDS011;54933;51.908;7.730;2023-04-16T07:22:02;2.17;;;1.97;;
13708;SDS011;54933;51.908;7.730;2023-04-16T07:24:27;4.27;;;2.23;;
13708;SDS011;54933;51.908;7.730;2023-04-16T07:26:53;2.50;;;2.30;;
13708;SDS011;54933;51.908;7.730;2023-04-16T07:29:18;2.90;;;2.57;;
13708;SDS011;54933;51.908;7.730;2023-04-16T07:31:43;2.63;;;2.43;;
13708;SDS011;54933;51.908;7.730;2023-04-16T07:34:09;3.53;;;2.40;;
13708;SDS011;54933;51.908;7.730;2023-04-16T07:36:34;2.77;;;2.43;;
13708;SDS011;54933;51.908;7.730;2023-04-16T07:39:00;3.30;;;2.50;;
13708;SDS011;54933;51.908;7.730;2023-04-16T07:41:25;2.67;;;2.47;;
13708;SDS011;54933;51.908;7.730;2023-04-16T07:43:50;3.13;;;2.47;;
13708;SDS011;54933;51.908;7.730;2023-04-16T07:46:15;2.37;;;2.17;;
13708;SDS011;54933;51.908;7.730;2023-04-16T07:48:41;2.27;;;2.07;;
13708;SDS011;54933;51.908;7.730;2023-04-16T07:51:06;2.50;;;2.30;;
13708;SDS011;54933;51.908;7.730;2023-04-16T07:53:32;2.50;;;2.30;;
13708;SDS011;54933;51.908;7.730;2023-04-16T07:55:57;2.37;;;2.17;;
13708;SDS011;54933;51.908;7.730;2023-04-16T07:58:22;3.50;;;2.57;;
13708;SDS011;54933;51.908;7.730;2023-04-16T08:00:47;2.70;;;2.50;;
13708;SDS011;54933;51.908;7.730;2023-04-16T08:03:13;4.60;;;2.60;;
13708;SDS011;54933;51.908;7.730;2023-04-16T08:05:40;4.07;;;2.30;;
13708;SDS011;54933;51.908;7.730;2023-04-16T08:08:05;2.83;;;2.47;;
13708;SDS011;54933;51.908;7.730;2023-04-16T08:10:30;2.90;;;2.67;;
13708;SDS011;54933;51.908;7.730;2023-04-16T08:12:56;2.73;;;2.53;;
13708;SDS011;54933;51.908;7.730;2023-04-16T08:15:23;2.60;;;2.40;;
13708;SDS011;54933;51.908;7.730;2023-04-16T08:17:49;2.63;;;2.43;;
13708;SDS011;54933;51.908;7.730;2023-04-16T08:20:14;4.67;;;2.70;;
13708;SDS011;54933;51.908;7.730;2023-04-16T08:22:40;3.10;;;2.53;;
13708;SDS011;54933;51.908;7.730;2023-04-16T08:25:05;2.70;;;2.50;;
13708;SDS011;54933;51.908;7.730;2023-04-16T08:27:31;8.47;;;2.80;;
13708;SDS011;54933;51.908;7.730;2023-04-16T08:29:56;10.90;;;3.03;;
13708;SDS011;54933;51.908;7.730;2023-04-16T08:32:21;34.27;;;4.23;;
13708;SDS011;54933;51.908;7.730;2023-04-16T08:34:46;28.27;;;10.63;;
13708;SDS011;54933;51.908;7.730;2023-04-16T08:37:12;54.83;;;12.97;;
13708;SDS011;54933;51.908;7.730;2023-04-16T08:39:37;60.30;;;10.97;;
13708;SDS011;54933;51.908;7.730;2023-04-16T08:42:04;38.87;;;10.80;;
13708;SDS011;54933;51.908;7.730;2023-04-16T08:44:34;26.27;;;8.67;;
13708;SDS011;54933;51.908;7.730;2023-04-16T08:47:05;27.63;;;8.10;;
13708;SDS011;54933;51.908;7.730;2023-04-16T08:49:33;27.57;;;7.33;;
13708;SDS011;54933;51.908;7.730;2023-04-16T08:52:00;24.90;;;7.90;;
13708;SDS011;54933;51.908;7.730;2023-04-16T08:54:35;29.03;;;6.67;;
13708;SDS011;54933;51.908;7.730;2023-04-16T08:57:08;36.00;;;6.23;;
13708;SDS011;54933;51.908;7.730;2023-04-16T08:59:34;28.33;;;6.10;;
13708;SDS011;54933;51.908;7.730;2023-04-16T09:02:00;16.10;;;5.63;;
13708;SDS011;54933;51.908;7.730;2023-04-16T09:04:26;22.33;;;6.27;;
13708;SDS011;54933;51.908;7.730;2023-04-16T09:06:53;19.67;;;5.90;;
13708;SDS011;54933;51.908;7.730;2023-04-16T09:09:20;64.83;;;11.60;;
13708;SDS011;54933;51.908;7.730;2023-04-16T09:11:48;28.10;;;7.37;;
13708;SDS011;54933;51.908;7.730;2023-04-16T09:14:15;29.83;;;6.63;;
13708;SDS011;54933;51.908;7.730;2023-04-16T09:16:41;178.97;;;18.13;;
13708;SDS011;54933;51.908;7.730;2023-04-16T09:19:09;63.97;;;11.90;;
13708;SDS011;54933;51.908;7.730;2023-04-16T09:21:34;67.97;;;10.27;;
13708;SDS011;54933;51.908;7.730;2023-04-16T09:24:00;45.07;;;9.53;;
13708;SDS011;54933;51.908;7.730;2023-04-16T09:26:26;30.77;;;7.83;;
13708;SDS011;54933;51.908;7.730;2023-04-16T09:28:51;38.37;;;8.77;;
13708;SDS011;54933;51.908;7.730;2023-04-16T09:31:17;34.53;;;7.60;;
13708;SDS011;54933;51.908;7.730;2023-04-16T09:33:43;29.40;;;6.50;;
13708;SDS011;54933;51.908;7.730;2023-04-16T09:36:25;45.60;;;7.57;;
13708;SDS011;54933;51.908;7.730;2023-04-16T09:38:52;28.83;;;6.67;;
13708;SDS011;54933;51.908;7.730;2023-04-16T09:41:18;27.57;;;6.03;;
13708;SDS011;54933;51.908;7.730;2023-04-16T09:43:52;35.27;;;6.17;;
13708;SDS011;54933;51.908;7.730;2023-04-16T09:46:23;133.63;;;18.47;;
13708;SDS011;54933;51.908;7.730;2023-04-16T09:48:53;59.47;;;11.70;;
13708;SDS011;54933;51.908;7.730;2023-04-16T09:51:18;37.07;;;8.30;;
13708;SDS011;54933;51.908;7.730;2023-04-16T09:53:43;31.00;;;12.20;;
13708;SDS011;54933;51.908;7.730;2023-04-16T09:56:10;31.47;;;11.73;;
13708;SDS011;54933;51.908;7.730;2023-04-16T09:58:36;79.53;;;13.83;;
13708;SDS011;54933;51.908;7.730;2023-04-16T10:01:06;52.13;;;10.37;;
13708;SDS011;54933;51.908;7.730;2023-04-16T10:03:33;57.80;;;10.87;;
13708;SDS011;54933;51.908;7.730;2023-04-16T10:08:33;34.63;;;8.57;;
13708;SDS011;54933;51.908;7.730;2023-04-16T10:10:59;34.37;;;8.03;;
13708;SDS011;54933;51.908;7.730;2023-04-16T10:13:24;25.40;;;7.87;;
13708;SDS011;54933;51.908;7.730;2023-04-16T10:15:54;24.13;;;7.90;;
13708;SDS011;54933;51.908;7.730;2023-04-16T10:18:21;18.20;;;6.23;;
13708;SDS011;54933;51.908;7.730;2023-04-16T10:20:47;21.73;;;6.17;;
13708;SDS011;54933;51.908;7.730;2023-04-16T10:23:13;22.87;;;6.73;;
13708;SDS011;54933;51.908;7.730;2023-04-16T10:25:38;22.93;;;4.93;;
13708;SDS011;54933;51.908;7.730;2023-04-16T10:28:04;25.27;;;6.07;;
13708;SDS011;54933;51.908;7.730;2023-04-16T10:30:30;19.20;;;5.20;;
13708;SDS011;54933;51.908;7.730;2023-04-16T10:32:56;13.30;;;5.00;;
13708;SDS011;54933;51.908;7.730;2023-04-16T10:35:24;20.43;;;5.67;;
13708;SDS011;54933;51.908;7.730;2023-04-16T10:37:49;19.87;;;5.43;;
13708;SDS011;54933;51.908;7.730;2023-04-16T10:40:21;13.30;;;5.27;;
13708;SDS011;54933;51.908;7.730;2023-04-16T10:42:54;9.70;;;4.60;;
13708;SDS011;54933;51.908;7.730;2023-04-16T10:45:28;15.23;;;5.60;;
13708;SDS011;54933;51.908;7.730;2023-04-16T10:48:03;10.17;;;5.60;;
13708;SDS011;54933;51.908;7.730;2023-04-16T10:50:33;12.60;;;5.00;;
13708;SDS011;54933;51.908;7.730;2023-04-16T10:53:22;13.37;;;4.97;;
13708;SDS011;54933;51.908;7.730;2023-04-16T10:55:56;10.10;;;4.80;;
13708;SDS011;54933;51.908;7.730;2023-04-16T10:58:28;12.83;;;4.83;;
13708;SDS011;54933;51.908;7.730;2023-04-16T11:00:57;11.47;;;5.40;;
13708;SDS011;54933;51.908;7.730;2023-04-16T11:03:23;9.53;;;4.67;;
13708;SDS011;54933;51.908;7.730;2023-04-16T11:05:48;7.90;;;4.47;;
13708;SDS011;54933;51.908;7.730;2023-04-16T11:08:14;11.40;;;5.07;;
13708;SDS011;54933;51.908;7.730;2023-04-16T11:10:40;11.93;;;4.53;;
13708;SDS011;54933;51.908;7.730;2023-04-16T11:13:06;37.83;;;8.67;;
13708;SDS011;54933;51.908;7.730;2023-04-16T11:15:31;10.77;;;4.93;;
13708;SDS011;54933;51.908;7.730;2023-04-16T11:17:57;24.00;;;5.57;;
13708;SDS011;54933;51.908;7.730;2023-04-16T11:20:23;19.43;;;5.60;;
13708;SDS011;54933;51.908;7.730;2023-04-16T11:22:51;17.97;;;4.93;;
13708;SDS011;54933;51.908;7.730;2023-04-16T11:25:20;24.33;;;4.77;;
13708;SDS011;54933;51.908;7.730;2023-04-16T11:27:46;19.37;;;4.50;;
13708;SDS011;54933;51.908;7.730;2023-04-16T11:30:12;24.57;;;4.80;;
13708;SDS011;54933;51.908;7.730;2023-04-16T11:32:38;13.07;;;4.33;;
13708;SDS011;54933;51.908;7.730;2023-04-16T11:35:04;20.07;;;4.57;;
13708;SDS011;54933;51.908;7.730;2023-04-16T11:37:39;28.40;;;4.47;;
13708;SDS011;54933;51.908;7.730;2023-04-16T11:40:04;16.73;;;4.30;;
13708;SDS011;54933;51.908;7.730;2023-04-16T11:42:31;11.67;;;3.93;;
13708;SDS011;54933;51.908;7.730;2023-04-16T11:44:57;17.70;;;4.07;;
13708;SDS011;54933;51.908;7.730;2023-04-16T11:47:28;14.27;;;3.50;;
13708;SDS011;54933;51.908;7.730;2023-04-16T11:49:56;15.70;;;3.70;;
13708;SDS011;54933;51.908;7.730;2023-04-16T11:52:26;14.17;;;4.07;;
13708;SDS011;54933;51.908;7.730;2023-04-16T11:54:56;8.13;;;3.33;;
13708;SDS011;54933;51.908;7.730;2023-04-16T11:57:26;13.43;;;3.43;;
13708;SDS011;54933;51.908;7.730;2023-04-16T11:59:53;12.83;;;3.43;;
13708;SDS011;54933;51.908;7.730;2023-04-16T12:02:37;10.40;;;3.47;;
13708;SDS011;54933;51.908;7.730;2023-04-16T12:08:11;11.67;;;3.80;;
13708;SDS011;54933;51.908;7.730;2023-04-16T12:10:57;5.00;;;3.27;;
13708;SDS011;54933;51.908;7.730;2023-04-16T12:13:23;8.53;;;3.27;;
13708;SDS011;54933;51.908;7.730;2023-04-16T12:15:52;4.83;;;3.30;;
13708;SDS011;54933;51.908;7.730;2023-04-16T12:18:20;4.97;;;3.13;;
13708;SDS011;54933;51.908;7.730;2023-04-16T12:20:47;5.47;;;3.70;;
13708;SDS011;54933;51.908;7.730;2023-04-16T12:23:28;11.93;;;3.07;;
13708;SDS011;54933;51.908;7.730;2023-04-16T12:25:55;6.97;;;3.10;;
13708;SDS011;54933;51.908;7.730;2023-04-16T12:28:29;12.00;;;3.60;;
13708;SDS011;54933;51.908;7.730;2023-04-16T12:30:56;6.40;;;3.17;;
13708;SDS011;54933;51.908;7.730;2023-04-16T12:33:22;4.40;;;2.90;;
13708;SDS011;54933;51.908;7.730;2023-04-16T12:35:47;55.80;;;8.80;;
13708;SDS011;54933;51.908;7.730;2023-04-16T12:38:13;7.63;;;6.63;;
13708;SDS011;54933;51.908;7.730;2023-04-16T12:40:41;10.40;;;7.10;;
13708;SDS011;54933;51.908;7.730;2023-04-16T12:43:06;23.00;;;7.10;;
13708;SDS011;54933;51.908;7.730;2023-04-16T12:45:33;29.07;;;8.47;;
13708;SDS011;54933;51.908;7.730;2023-04-16T12:47:58;9.27;;;6.23;;
13708;SDS011;54933;51.908;7.730;2023-04-16T12:50:23;14.90;;;6.30;;
13708;SDS011;54933;51.908;7.730;2023-04-16T12:52:49;12.67;;;4.77;;
13708;SDS011;54933;51.908;7.730;2023-04-16T12:55:14;6.73;;;4.63;;
13708;SDS011;54933;51.908;7.730;2023-04-16T12:57:40;9.97;;;4.43;;
13708;SDS011;54933;51.908;7.730;2023-04-16T13:00:05;6.53;;;3.80;;
13708;SDS011;54933;51.908;7.730;2023-04-16T13:02:32;14.40;;;4.50;;
13708;SDS011;54933;51.908;7.730;2023-04-16T13:04:57;12.97;;;4.13;;
13708;SDS011;54933;51.908;7.730;2023-04-16T13:07:23;5.27;;;3.60;;
13708;SDS011;54933;51.908;7.730;2023-04-16T13:09:50;7.10;;;3.30;;
13708;SDS011;54933;51.908;7.730;2023-04-16T13:12:16;6.33;;;3.97;;
13708;SDS011;54933;51.908;7.730;2023-04-16T13:14:41;9.20;;;3.70;;
13708;SDS011;54933;51.908;7.730;2023-04-16T13:17:06;7.60;;;3.57;;
13708;SDS011;54933;51.908;7.730;2023-04-16T13:19:32;4.17;;;3.03;;
13708;SDS011;54933;51.908;7.730;2023-04-16T13:21:57;8.47;;;3.60;;
13708;SDS011;54933;51.908;7.730;2023-04-16T13:24:23;5.57;;;3.00;;
13708;SDS011;54933;51.908;7.730;2023-04-16T13:26:49;6.60;;;2.97;;
13708;SDS011;54933;51.908;7.730;2023-04-16T13:29:16;9.00;;;3.70;;
13708;SDS011;54933;51.908;7.730;2023-04-16T13:31:42;4.83;;;3.27;;
13708;SDS011;54933;51.908;7.730;2023-04-16T13:34:07;5.73;;;3.33;;
13708;SDS011;54933;51.908;7.730;2023-04-16T13:36:32;6.80;;;3.67;;
13708;SDS011;54933;51.908;7.730;2023-04-16T13:38:58;7.17;;;3.47;;
13708;SDS011;54933;51.908;7.730;2023-04-16T13:41:23;8.37;;;3.43;;
13708;SDS011;54933;51.908;7.730;2023-04-16T13:43:49;6.37;;;2.97;;
13708;SDS011;54933;51.908;7.730;2023-04-16T13:46:15;4.63;;;2.90;;
13708;SDS011;54933;51.908;7.730;2023-04-16T13:48:40;9.43;;;3.37;;
13708;SDS011;54933;51.908;7.730;2023-04-16T13:51:05;8.83;;;3.13;;
13708;SDS011;54933;51.908;7.730;2023-04-16T13:53:32;5.13;;;3.10;;
13708;SDS011;54933;51.908;7.730;2023-04-16T13:55:57;4.53;;;2.80;;
13708;SDS011;54933;51.908;7.730;2023-04-16T13:58:22;4.33;;;3.10;;
13708;SDS011;54933;51.908;7.730;2023-04-16T14:00:48;6.13;;;3.20;;
13708;SDS011;54933;51.908;7.730;2023-04-16T14:03:13;3.93;;;2.90;;
13708;SDS011;54933;51.908;7.730;2023-04-16T14:05:39;6.83;;;2.83;;
13708;SDS011;54933;51.908;7.730;2023-04-16T14:08:05;5.17;;;2.60;;
13708;SDS011;54933;51.908;7.730;2023-04-16T14:10:30;4.07;;;2.70;;
13708;SDS011;54933;51.908;7.730;2023-04-16T14:12:56;7.77;;;2.57;;
13708;SDS011;54933;51.908;7.730;2023-04-16T14:15:21;4.83;;;2.90;;
13708;SDS011;54933;51.908;7.730;2023-04-16T14:17:47;3.37;;;2.83;;
13708;SDS011;54933;51.908;7.730;2023-04-16T14:20:12;4.83;;;2.77;;
13708;SDS011;54933;51.908;7.730;2023-04-16T14:22:38;3.47;;;2.80;;
13708;SDS011;54933;51.908;7.730;2023-04-16T14:25:04;4.40;;;3.50;;
13708;SDS011;54933;51.908;7.730;2023-04-16T14:27:30;3.30;;;2.73;;
13708;SDS011;54933;51.908;7.730;2023-04-16T14:29:55;3.00;;;2.73;;
13708;SDS011;54933;51.908;7.730;2023-04-16T14:32:21;3.57;;;2.67;;
13708;SDS011;54933;51.908;7.730;2023-04-16T14:34:46;5.17;;;2.70;;
13708;SDS011;54933;51.908;7.730;2023-04-16T14:37:12;4.60;;;2.77;;
13708;SDS011;54933;51.908;7.730;2023-04-16T14:39:40;3.73;;;2.80;;
13708;SDS011;54933;51.908;7.730;2023-04-16T14:42:05;2.93;;;2.60;;